createdAt,value
2018-06-12T00:01:10.019Z,69.28
2018-06-12T00:03:37.122Z,68.80
2018-06-12T00:06:05.072Z,69.76
2018-06-12T00:08:32.092Z,69.67
2018-06-12T00:10:59.112Z,69.86
2018-06-12T00:13:26.134Z,69.61
2018-06-12T00:15:53.231Z,70.33
2018-06-12T00:18:20.267Z,68.57
2018-06-12T00:20:47.378Z,69.62
2018-06-12T00:23:14.668Z,70.33
2018-06-12T00:25:41.980Z,69.98
2018-06-12T00:28:09.089Z,70.14
2018-06-12T00:30:36.115Z,69.83
2018-06-12T00:33:03.139Z,70.54
2018-06-12T00:35:30.475Z,69.99
2018-06-12T00:37:57.581Z,70.88
2018-06-12T00:40:24.673Z,70.97
2018-06-12T00:42:51.721Z,70.68
2018-06-12T00:45:18.767Z,70.83
2018-06-12T00:47:45.775Z,70.54
2018-06-12T00:50:12.871Z,70.32
2018-06-12T00:52:39.894Z,70.07
2018-06-12T00:55:06.917Z,70.44
2018-06-12T00:57:34.026Z,71.02
2018-06-12T01:00:01.124Z,70.87
2018-06-12T01:02:28.237Z,71.10
2018-06-12T01:04:55.271Z,69.46
2018-06-12T01:07:24.330Z,69.44
2018-06-12T01:09:51.361Z,69.85
2018-06-12T01:12:18.394Z,69.91
2018-06-12T01:14:45.593Z,70.29
2018-06-12T01:17:13.239Z,69.44
2018-06-12T01:19:40.312Z,69.06
2018-06-12T01:22:07.325Z,70.63
2018-06-12T01:24:34.456Z,70.34
2018-06-12T01:27:01.463Z,69.83
2018-06-12T01:29:28.502Z,70.47
2018-06-12T01:31:55.566Z,70.17
2018-06-12T01:34:22.666Z,69.83
2018-06-12T01:36:49.752Z,70.08
2018-06-12T01:39:16.800Z,70.65
2018-06-12T01:41:43.804Z,71.07
2018-06-12T01:44:10.835Z,70.75
2018-06-12T01:46:37.944Z,71.09
2018-06-12T01:49:04.973Z,71.34
2018-06-12T01:51:32.101Z,71.70
2018-06-12T01:53:59.109Z,71.31
2018-06-12T01:56:26.126Z,71.98
2018-06-12T01:58:53.257Z,71.75
2018-06-12T02:01:20.262Z,70.70
2018-06-12T02:03:47.353Z,71.56
2018-06-12T02:06:14.373Z,70.51
2018-06-12T02:08:41.635Z,69.85
2018-06-12T02:11:08.650Z,70.65
2018-06-12T02:13:35.732Z,70.00
2018-06-12T02:16:02.772Z,70.63
2018-06-12T02:18:29.807Z,70.52
2018-06-12T02:20:56.958Z,70.10
2018-06-12T02:23:23.962Z,69.95
2018-06-12T02:25:50.960Z,69.34
2018-06-12T02:28:17.981Z,69.54
2018-06-12T02:30:44.997Z,69.21
2018-06-12T02:33:11.999Z,69.04
2018-06-12T02:35:39.015Z,69.07
2018-06-12T02:38:06.029Z,69.51
2018-06-12T02:40:33.064Z,69.64
2018-06-12T02:43:00.084Z,69.83
2018-06-12T02:45:27.146Z,69.77
2018-06-12T02:47:54.249Z,70.46
2018-06-12T02:50:21.345Z,70.52
2018-06-12T02:52:48.424Z,70.81
2018-06-12T02:55:15.450Z,70.70
2018-06-12T02:57:42.465Z,71.02
2018-06-12T03:00:09.485Z,71.87
2018-06-12T03:02:36.585Z,71.79
2018-06-12T03:05:04.082Z,71.64
2018-06-12T03:07:31.105Z,73.17
2018-06-12T03:09:58.282Z,70.55
2018-06-12T03:12:25.391Z,70.11
2018-06-12T03:14:52.415Z,71.04
2018-06-12T03:17:19.405Z,70.19
2018-06-12T03:19:46.506Z,70.81
2018-06-12T03:22:13.506Z,70.95
2018-06-12T03:24:40.589Z,69.81
2018-06-12T03:27:07.689Z,70.37
2018-06-12T03:29:35.028Z,69.83
2018-06-12T03:32:02.121Z,70.23
2018-06-12T03:34:29.216Z,69.02
2018-06-12T03:36:56.249Z,70.05
2018-06-12T03:39:23.355Z,69.39
2018-06-12T03:41:50.469Z,69.91
2018-06-12T03:44:17.573Z,69.65
2018-06-12T03:46:44.754Z,69.32
2018-06-12T03:49:11.761Z,69.22
2018-06-12T03:51:38.933Z,69.83
2018-06-12T03:54:06.050Z,69.86
2018-06-12T03:56:33.133Z,70.09
2018-06-12T03:59:00.221Z,70.33
2018-06-12T04:01:27.341Z,70.34
2018-06-12T04:03:54.546Z,70.93
2018-06-12T04:06:22.060Z,71.16
2018-06-12T04:08:49.062Z,71.43
2018-06-12T04:11:16.060Z,70.86
2018-06-12T04:13:43.102Z,71.06
2018-06-12T04:16:10.125Z,71.36
2018-06-12T04:18:37.241Z,71.23
2018-06-12T04:21:04.245Z,71.68
2018-06-12T04:23:31.345Z,71.26
2018-06-12T04:25:58.348Z,71.42
2018-06-12T04:28:25.580Z,71.51
2018-06-12T04:30:52.670Z,70.98
2018-06-12T04:33:19.673Z,70.04
2018-06-12T04:35:46.701Z,69.91
2018-06-12T04:38:13.802Z,70.67
2018-06-12T04:40:40.815Z,71.29
2018-06-12T04:43:07.921Z,71.49
2018-06-12T04:45:34.938Z,71.54
2018-06-12T04:48:01.943Z,71.63
2018-06-12T04:50:29.047Z,71.85
2018-06-12T04:52:56.138Z,72.20
2018-06-12T04:55:23.204Z,71.72
2018-06-12T04:57:50.213Z,72.49
2018-06-12T05:00:17.379Z,71.67
2018-06-12T05:02:44.417Z,71.97
2018-06-12T05:05:11.511Z,71.81
2018-06-12T05:07:38.619Z,72.27
2018-06-12T05:10:05.726Z,71.84
2018-06-12T05:12:32.755Z,72.33
2018-06-12T05:14:59.782Z,71.35
2018-06-12T05:17:26.890Z,71.98
2018-06-12T05:19:54.238Z,71.33
2018-06-12T05:22:21.234Z,72.12
2018-06-12T05:24:48.286Z,71.98
2018-06-12T05:27:15.409Z,71.31
2018-06-12T05:29:42.413Z,71.47
2018-06-12T05:32:09.489Z,69.70
2018-06-12T05:34:36.884Z,69.90
2018-06-12T05:37:03.937Z,70.86
2018-06-12T05:39:30.949Z,70.90
2018-06-12T05:41:57.985Z,70.92
2018-06-12T05:44:25.261Z,70.59
2018-06-12T05:46:52.437Z,70.02
2018-06-12T05:49:19.412Z,70.86
2018-06-12T05:51:46.698Z,70.93
2018-06-12T05:54:13.712Z,71.00
2018-06-12T05:56:40.818Z,71.13
2018-06-12T05:59:07.856Z,71.63
2018-06-12T06:01:34.906Z,71.29
2018-06-12T06:04:02.010Z,71.98
2018-06-12T06:06:29.030Z,71.68
2018-06-12T06:08:56.039Z,71.25
2018-06-12T06:11:23.071Z,70.46
2018-06-12T06:13:50.094Z,71.00
2018-06-12T06:16:17.188Z,70.86
2018-06-12T06:18:44.222Z,70.59
2018-06-12T06:21:11.270Z,70.92
2018-06-12T06:23:38.288Z,70.34
2018-06-12T06:26:05.427Z,70.78
2018-06-12T06:28:32.465Z,70.75
2018-06-12T06:30:59.554Z,70.95
2018-06-12T06:33:26.569Z,70.23
2018-06-12T06:35:53.582Z,69.80
2018-06-12T06:38:20.612Z,70.75
2018-06-12T06:40:47.618Z,70.33
2018-06-12T06:43:14.642Z,71.59
2018-06-12T06:45:41.842Z,70.43
2018-06-12T06:48:08.877Z,71.63
2018-06-12T06:50:35.895Z,71.68
2018-06-12T06:53:03.022Z,71.50
2018-06-12T06:55:30.054Z,70.85
2018-06-12T06:57:57.074Z,71.27
2018-06-12T07:00:24.188Z,71.23
2018-06-12T07:02:51.302Z,70.54
2018-06-12T07:05:18.408Z,70.39
2018-06-12T07:07:45.437Z,70.76
2018-06-12T07:10:12.555Z,70.32
2018-06-12T07:12:39.576Z,70.55
2018-06-12T07:15:06.585Z,70.90
2018-06-12T07:17:33.690Z,70.67
2018-06-12T07:20:00.777Z,71.03
2018-06-12T07:22:27.796Z,70.31
2018-06-12T07:24:54.822Z,69.82
2018-06-12T07:27:21.825Z,69.92
2018-06-12T07:29:48.937Z,70.11
2018-06-12T07:32:15.975Z,69.43
2018-06-12T07:34:43.015Z,69.49
2018-06-12T07:37:10.122Z,69.73
2018-06-12T07:39:37.177Z,69.04
2018-06-12T07:42:04.318Z,69.04
2018-06-12T07:44:31.624Z,69.15
2018-06-12T07:46:58.726Z,69.19
2018-06-12T07:49:25.749Z,67.44
2018-06-12T07:51:52.773Z,68.67
2018-06-12T07:54:19.890Z,67.53
2018-06-12T07:56:47.024Z,69.71
2018-06-12T07:59:14.042Z,67.91
2018-06-12T08:01:41.055Z,67.46
2018-06-12T08:04:08.138Z,67.43
2018-06-12T08:06:35.156Z,67.71
2018-06-12T08:09:02.406Z,67.97
2018-06-12T08:11:29.426Z,67.32
2018-06-12T08:13:56.436Z,66.62
2018-06-12T08:16:23.525Z,66.60
2018-06-12T08:18:50.615Z,65.14
2018-06-12T08:21:17.825Z,64.62
2018-06-12T08:23:44.930Z,64.66
2018-06-12T08:26:11.968Z,66.00
2018-06-12T08:28:38.999Z,64.62
2018-06-12T08:31:06.159Z,64.35
2018-06-12T08:33:33.283Z,64.78
2018-06-12T08:36:00.390Z,65.59
2018-06-12T08:38:27.494Z,65.69
2018-06-12T08:40:54.558Z,64.81
2018-06-12T08:43:21.618Z,66.18
2018-06-12T08:45:48.637Z,66.32
2018-06-12T08:48:15.667Z,65.12
2018-06-12T08:50:42.689Z,67.01
2018-06-12T08:53:09.790Z,66.02
2018-06-12T08:55:37.206Z,66.07
2018-06-12T08:58:04.306Z,66.47
2018-06-12T09:00:31.314Z,65.28
2018-06-12T09:02:58.435Z,64.24
2018-06-12T09:05:25.449Z,64.70
2018-06-12T09:07:52.472Z,64.01
2018-06-12T09:10:19.482Z,64.58
2018-06-12T09:12:46.582Z,65.46
2018-06-12T09:15:13.595Z,66.05
2018-06-12T09:17:40.616Z,65.10
2018-06-12T09:20:07.713Z,65.32
2018-06-12T09:22:34.918Z,66.41
2018-06-12T09:25:02.082Z,65.65
2018-06-12T09:27:33.945Z,65.63
2018-06-12T09:30:01.179Z,64.89
2018-06-12T09:32:28.362Z,65.51
2018-06-12T09:34:55.426Z,64.52
2018-06-12T09:37:22.824Z,65.97
2018-06-12T09:39:49.927Z,64.51
2018-06-12T09:42:16.978Z,64.93
2018-06-12T09:44:44.017Z,64.77
2018-06-12T09:47:11.126Z,63.72
2018-06-12T09:49:38.478Z,63.54
2018-06-12T09:52:05.490Z,64.29
2018-06-12T09:54:32.518Z,64.90
2018-06-12T09:56:59.940Z,64.34
2018-06-12T09:59:27.055Z,63.25
2018-06-12T10:01:54.243Z,60.69
2018-06-12T10:04:21.271Z,60.09
2018-06-12T10:06:48.381Z,60.23
2018-06-12T10:09:15.388Z,59.57
2018-06-12T10:11:42.493Z,59.78
2018-06-12T10:14:10.098Z,59.65
2018-06-12T10:16:37.667Z,60.29
2018-06-12T10:19:04.728Z,59.93
2018-06-12T10:21:31.734Z,60.74
2018-06-12T10:23:58.838Z,61.60
2018-06-12T10:26:25.885Z,61.15
2018-06-12T10:28:52.987Z,61.52
2018-06-12T10:31:20.000Z,61.24
2018-06-12T10:33:47.060Z,61.37
2018-06-12T10:36:14.073Z,61.35
2018-06-12T10:38:41.096Z,62.34
2018-06-12T10:41:08.418Z,62.62
2018-06-12T10:43:35.635Z,62.72
2018-06-12T10:46:02.865Z,62.74
2018-06-12T10:48:29.995Z,63.88
2018-06-12T10:50:56.995Z,64.28
2018-06-12T10:53:24.020Z,65.04
2018-06-12T10:55:51.057Z,66.02
2018-06-12T10:58:18.085Z,64.89
2018-06-12T11:00:45.202Z,65.35
2018-06-12T11:03:12.333Z,63.94
2018-06-12T11:05:39.365Z,63.46
2018-06-12T11:08:06.424Z,62.65
2018-06-12T11:10:33.722Z,62.86
2018-06-12T11:13:00.917Z,62.97
2018-06-12T11:15:27.990Z,63.21
2018-06-12T11:17:55.086Z,62.00
2018-06-12T11:20:22.129Z,62.69
2018-06-12T11:22:49.145Z,63.34
2018-06-12T11:25:16.295Z,63.74
2018-06-12T11:27:43.647Z,63.46
2018-06-12T11:30:10.650Z,63.58
2018-06-12T11:32:37.768Z,63.61
2018-06-12T11:35:04.974Z,64.92
2018-06-12T11:37:32.001Z,64.44
2018-06-12T11:39:59.037Z,63.77
2018-06-12T11:42:26.070Z,64.48
2018-06-12T11:44:53.092Z,64.46
2018-06-12T11:47:20.105Z,64.31
2018-06-12T11:49:47.123Z,63.70
2018-06-12T11:52:14.155Z,63.63
2018-06-12T11:54:41.787Z,62.42
2018-06-12T11:57:08.918Z,64.29
2018-06-12T11:59:35.979Z,64.22
2018-06-12T12:02:03.215Z,65.54
2018-06-12T12:04:30.264Z,65.88
2018-06-12T12:06:57.309Z,65.89
2018-06-12T12:09:24.314Z,65.63
2018-06-12T12:11:51.490Z,66.65
2018-06-12T12:14:18.527Z,67.25
2018-06-12T12:16:45.624Z,67.55
2018-06-12T12:19:12.677Z,66.94
2018-06-12T12:21:39.981Z,66.97
2018-06-12T12:24:07.081Z,68.25
2018-06-12T12:26:34.183Z,66.79
2018-06-12T12:29:01.450Z,66.61
2018-06-12T12:31:28.574Z,65.62
2018-06-12T12:33:55.689Z,63.38
2018-06-12T12:36:22.713Z,62.33
2018-06-12T12:38:49.726Z,62.56
2018-06-12T12:41:16.757Z,62.65
2018-06-12T12:43:43.831Z,64.06
2018-06-12T12:46:10.998Z,63.81
2018-06-12T12:48:38.097Z,65.41
2018-06-12T12:51:05.272Z,64.59
2018-06-12T12:53:32.313Z,65.16
2018-06-12T12:55:59.337Z,65.29
2018-06-12T12:58:26.396Z,64.03
2018-06-12T13:00:53.500Z,65.58
2018-06-12T13:03:20.839Z,65.59
2018-06-12T13:05:47.964Z,65.55
2018-06-12T13:08:15.009Z,65.85
2018-06-12T13:10:42.021Z,66.05
2018-06-12T13:13:09.218Z,66.90
2018-06-12T13:15:36.295Z,65.26
2018-06-12T13:18:03.397Z,66.37
2018-06-12T13:20:30.423Z,66.35
2018-06-12T13:22:57.551Z,67.14
2018-06-12T13:25:24.741Z,67.31
2018-06-12T13:27:51.854Z,65.79
2018-06-12T13:30:18.894Z,65.57
2018-06-12T13:32:46.041Z,66.29
2018-06-12T13:35:13.088Z,65.12
2018-06-12T13:37:40.549Z,64.94
2018-06-12T13:40:07.583Z,67.12
2018-06-12T13:42:34.677Z,65.87
2018-06-12T13:45:01.707Z,66.15
2018-06-12T13:47:28.818Z,65.83
2018-06-12T13:49:55.877Z,65.47
2018-06-12T13:52:22.982Z,66.12
2018-06-12T13:54:50.035Z,66.92
2018-06-12T13:57:17.078Z,66.19
2018-06-12T13:59:44.223Z,65.79
2018-06-12T14:02:11.230Z,66.24
2018-06-12T14:04:38.344Z,66.66
2018-06-12T14:07:05.506Z,65.87
2018-06-12T14:09:32.548Z,66.72
2018-06-12T14:14:33.409Z,67.24
2018-06-12T14:17:00.640Z,67.16
2018-06-12T14:19:27.835Z,66.76
2018-06-12T14:21:55.254Z,66.71
2018-06-12T14:26:56.111Z,67.62
2018-06-12T14:29:23.179Z,66.72
2018-06-12T14:31:50.342Z,67.04
2018-06-12T14:34:17.676Z,66.81
2018-06-12T14:36:45.022Z,67.11
2018-06-12T14:39:12.046Z,67.10
2018-06-12T14:41:39.058Z,66.49
2018-06-12T14:44:06.180Z,67.28
2018-06-12T14:46:33.315Z,67.87
2018-06-12T14:49:00.392Z,68.49
2018-06-12T14:51:27.410Z,68.15
2018-06-12T14:53:54.466Z,67.81
2018-06-12T14:56:21.727Z,67.89
2018-06-12T14:58:48.838Z,66.61
2018-06-12T15:01:15.865Z,67.10
2018-06-12T15:03:42.885Z,66.76
2018-06-12T15:06:09.909Z,67.23
2018-06-12T15:08:36.923Z,67.49
2018-06-12T15:11:03.942Z,67.01
2018-06-12T15:13:30.940Z,67.47
2018-06-12T15:15:57.975Z,66.88
2018-06-12T15:18:24.986Z,67.00
2018-06-12T15:20:52.274Z,67.02
2018-06-12T15:23:19.537Z,66.91
2018-06-12T15:25:47.430Z,66.76
2018-06-12T15:28:14.445Z,66.91
2018-06-12T15:30:41.453Z,67.69
2018-06-12T15:33:08.543Z,67.56
2018-06-12T15:35:35.678Z,67.77
2018-06-12T15:38:02.730Z,67.61
2018-06-12T15:40:29.790Z,67.75
2018-06-12T15:42:56.903Z,67.57
2018-06-12T15:45:23.941Z,67.74
2018-06-12T15:47:50.970Z,67.66
2018-06-12T15:50:18.022Z,68.12
2018-06-12T15:52:45.129Z,67.58
2018-06-12T15:55:12.169Z,67.32
2018-06-12T15:57:39.201Z,67.04
2018-06-12T16:00:06.285Z,67.37
2018-06-12T16:02:33.393Z,66.98
2018-06-12T16:05:00.673Z,67.11
2018-06-12T16:07:27.778Z,66.47
2018-06-12T16:09:54.811Z,66.33
2018-06-12T16:12:22.192Z,67.16
2018-06-12T16:14:49.278Z,65.99
2018-06-12T16:17:16.659Z,65.39
2018-06-12T16:19:43.680Z,66.77
2018-06-12T16:22:10.797Z,67.66
2018-06-12T16:24:37.811Z,67.50
2018-06-12T16:27:04.838Z,68.10
2018-06-12T16:29:31.893Z,68.77
2018-06-12T16:31:58.990Z,69.53
2018-06-12T16:34:25.992Z,70.00
2018-06-12T16:36:53.041Z,68.95
2018-06-12T16:39:20.154Z,68.94
2018-06-12T16:41:47.253Z,69.83
2018-06-12T16:44:14.377Z,69.63
2018-06-12T16:46:41.468Z,70.13
2018-06-12T16:49:08.494Z,70.57
2018-06-12T16:51:35.623Z,70.37
2018-06-12T16:54:02.661Z,71.08
2018-06-12T16:56:29.791Z,71.48
2018-06-12T16:58:57.033Z,71.99
2018-06-12T17:01:24.068Z,72.48
2018-06-12T17:03:51.089Z,72.55
2018-06-12T17:06:18.230Z,72.78
2018-06-12T17:08:45.246Z,72.46
2018-06-12T17:11:12.557Z,72.33
2018-06-12T17:13:39.685Z,72.90
2018-06-12T17:16:06.876Z,72.57
2018-06-12T17:18:33.964Z,72.58
2018-06-12T17:21:00.983Z,72.30
2018-06-12T17:23:28.077Z,72.35
2018-06-12T17:25:55.114Z,72.34
2018-06-12T17:28:22.154Z,73.34
2018-06-12T17:30:49.225Z,72.48
2018-06-12T17:33:16.328Z,72.72
2018-06-12T17:35:43.442Z,72.73
2018-06-12T17:38:10.523Z,72.64
2018-06-12T17:40:37.670Z,72.58
2018-06-12T17:43:04.703Z,73.57
2018-06-12T17:45:31.825Z,74.11
2018-06-12T17:47:58.854Z,74.21
2018-06-12T17:50:25.958Z,74.44
2018-06-12T17:52:53.181Z,74.68
2018-06-12T17:55:20.370Z,74.09
2018-06-12T17:57:47.399Z,74.54
2018-06-12T18:00:14.516Z,74.68
2018-06-12T18:02:41.717Z,75.58
2018-06-12T18:05:09.224Z,76.08
2018-06-12T18:07:36.305Z,75.88
2018-06-12T18:10:03.378Z,77.00
2018-06-12T18:12:30.493Z,76.42
2018-06-12T18:14:57.505Z,77.65
2018-06-12T18:17:24.550Z,76.59
2018-06-12T18:19:57.344Z,77.44
2018-06-12T18:22:24.600Z,78.12
2018-06-12T18:24:51.725Z,76.81
2018-06-12T18:27:18.778Z,77.06
2018-06-12T18:29:45.901Z,78.03
2018-06-12T18:32:12.965Z,78.35
2018-06-12T18:34:40.071Z,77.61
2018-06-12T18:37:07.113Z,78.63
2018-06-12T18:39:34.218Z,77.93
2018-06-12T18:42:01.350Z,77.43
2018-06-12T18:44:28.417Z,76.26
2018-06-12T18:46:55.440Z,76.51
2018-06-12T18:49:22.485Z,76.49
2018-06-12T18:51:49.594Z,74.81
2018-06-12T18:54:16.617Z,75.03
2018-06-12T18:56:43.740Z,75.40
2018-06-12T18:59:10.746Z,75.14
2018-06-12T19:01:37.749Z,73.89
2018-06-12T19:04:04.908Z,73.52
2018-06-12T19:06:32.059Z,73.47
2018-06-12T19:08:59.101Z,73.93
2018-06-12T19:11:26.156Z,73.55
2018-06-12T19:13:53.271Z,73.58
2018-06-12T19:16:20.363Z,73.63
2018-06-12T19:18:47.718Z,74.11
2018-06-12T19:21:14.893Z,73.94
2018-06-12T19:23:41.981Z,73.90
2018-06-12T19:26:09.011Z,74.42
2018-06-12T19:28:36.061Z,74.45
2018-06-12T19:31:03.245Z,74.49
2018-06-12T19:33:30.358Z,75.14
2018-06-12T19:35:57.449Z,73.62
2018-06-12T19:38:24.624Z,73.03
2018-06-12T19:40:51.736Z,71.89
2018-06-12T19:43:19.152Z,72.09
2018-06-12T19:45:46.301Z,71.95
2018-06-12T19:48:13.425Z,71.67
2018-06-12T19:50:40.531Z,71.92
2018-06-12T19:53:07.717Z,71.51
2018-06-12T19:55:34.766Z,71.33
2018-06-12T19:58:01.789Z,72.18
2018-06-12T20:00:28.889Z,72.02
2018-06-12T20:02:55.857Z,71.84
2018-06-12T20:05:22.875Z,72.41
2018-06-12T20:07:50.076Z,72.37
2018-06-12T20:10:17.109Z,72.17
2018-06-12T20:12:44.302Z,72.60
2018-06-12T20:15:11.466Z,71.85
2018-06-12T20:17:38.554Z,72.22
2018-06-12T20:20:06.029Z,72.41
2018-06-12T20:22:33.221Z,72.45
2018-06-12T20:25:00.262Z,71.57
2018-06-12T20:27:27.298Z,71.86
2018-06-12T20:29:54.489Z,71.54
2018-06-12T20:32:21.537Z,71.59
2018-06-12T20:34:48.626Z,71.17
2018-06-12T20:37:15.730Z,71.98
2018-06-12T20:39:42.798Z,71.51
2018-06-12T20:42:09.815Z,71.94
2018-06-12T20:44:36.918Z,71.81
2018-06-12T20:47:04.367Z,72.02
2018-06-12T20:49:31.402Z,72.54
2018-06-12T20:51:58.510Z,72.17
2018-06-12T20:54:25.718Z,72.81
2018-06-12T20:56:52.810Z,73.11
2018-06-12T20:59:19.885Z,72.78
2018-06-12T21:01:47.085Z,73.03
2018-06-12T21:04:14.097Z,73.53
2018-06-12T21:06:41.167Z,74.44
2018-06-12T21:09:08.343Z,74.60
2018-06-12T21:11:35.433Z,75.50
2018-06-12T21:14:02.475Z,75.64
2018-06-12T21:19:03.517Z,75.64
2018-06-12T21:21:30.555Z,76.80
2018-06-12T21:23:57.681Z,76.51
2018-06-12T21:26:25.106Z,77.48
2018-06-12T21:28:52.113Z,78.67
2018-06-12T21:31:19.237Z,78.56
2018-06-12T21:33:46.330Z,79.29
2018-06-12T21:36:13.422Z,81.18
2018-06-12T21:38:40.538Z,83.77
2018-06-12T21:41:07.644Z,85.20
2018-06-12T21:43:34.661Z,85.47
2018-06-12T21:46:01.748Z,86.36
2018-06-12T21:48:28.862Z,86.53
2018-06-12T21:50:56.058Z,86.43
2018-06-12T21:53:23.154Z,87.06
2018-06-12T21:55:50.387Z,86.58
2018-06-12T21:58:17.385Z,86.28
2018-06-12T22:00:44.434Z,85.57
2018-06-12T22:03:11.702Z,86.15
2018-06-12T22:05:38.689Z,85.21
2018-06-12T22:08:05.880Z,85.27
2018-06-12T22:10:32.893Z,85.33
2018-06-12T22:12:59.914Z,84.79
2018-06-12T22:15:27.035Z,85.56
2018-06-12T22:17:55.185Z,85.12
2018-06-12T22:20:22.182Z,85.17
2018-06-12T22:22:49.454Z,85.62
2018-06-12T22:25:16.559Z,85.83
2018-06-12T22:27:43.657Z,86.09
2018-06-12T22:30:10.750Z,86.21
2018-06-12T22:32:37.770Z,86.76
2018-06-12T22:35:04.883Z,86.76
2018-06-12T22:37:31.885Z,87.36
2018-06-12T22:39:58.902Z,88.30
2018-06-12T22:42:26.006Z,89.37
2018-06-12T22:44:53.072Z,89.34
2018-06-12T22:47:20.090Z,90.37
2018-06-12T22:49:47.198Z,90.44
2018-06-12T22:52:14.224Z,90.88
2018-06-12T22:54:41.397Z,91.23
2018-06-12T22:57:08.424Z,92.07
2018-06-12T22:59:35.417Z,92.11
2018-06-12T23:02:02.431Z,92.71
2018-06-12T23:04:29.563Z,92.99
2018-06-12T23:06:56.599Z,92.53
2018-06-12T23:09:23.617Z,92.76
2018-06-12T23:11:50.726Z,92.65
2018-06-12T23:14:17.825Z,92.65
2018-06-12T23:16:44.940Z,92.28
2018-06-12T23:19:12.069Z,92.16
2018-06-12T23:21:50.743Z,92.06
2018-06-12T23:24:17.774Z,92.24
2018-06-12T23:26:44.895Z,92.56
2018-06-12T23:29:11.990Z,91.84
2018-06-12T23:31:39.017Z,92.09
2018-06-12T23:34:06.074Z,91.27
2018-06-12T23:36:33.073Z,91.30
2018-06-12T23:39:00.161Z,90.92
2018-06-12T23:41:27.510Z,90.74
2018-06-12T23:43:54.528Z,90.16
2018-06-12T23:46:21.520Z,90.10
2018-06-12T23:48:48.526Z,90.28
2018-06-12T23:51:15.629Z,90.41
2018-06-12T23:53:42.726Z,89.80
2018-06-12T23:56:09.826Z,89.66
2018-06-12T23:58:36.874Z,89.08
